sensor_id;sensor_type;location;lat;lon;timestamp;P1;durP1;ratioP1;P2;durP2;ratioP2
71166;SDS011;58864;45.928;20.078;2024-03-07T00:01:53;24.05;;;10.48;;
71166;SDS011;58864;45.928;20.078;2024-03-07T00:04:19;19.33;;;9.13;;
71166;SDS011;58864;45.928;20.078;2024-03-07T00:06:45;19.92;;;8.75;;
71166;SDS011;58864;45.928;20.078;2024-03-07T00:09:14;20.13;;;9.20;;
71166;SDS011;58864;45.928;20.078;2024-03-07T00:11:40;18.67;;;8.60;;
71166;SDS011;58864;45.928;20.078;2024-03-07T00:14:06;16.38;;;7.75;;
71166;SDS011;58864;45.928;20.078;2024-03-07T00:16:32;19.55;;;8.07;;
71166;SDS011;58864;45.928;20.078;2024-03-07T00:18:58;16.00;;;6.82;;
71166;SDS011;58864;45.928;20.078;2024-03-07T00:21:24;18.10;;;7.47;;
71166;SDS011;58864;45.928;20.078;2024-03-07T00:23:49;17.17;;;7.25;;
71166;SDS011;58864;45.928;20.078;2024-03-07T00:26:16;15.95;;;6.45;;
71166;SDS011;58864;45.928;20.078;2024-03-07T00:28:42;15.07;;;6.88;;
71166;SDS011;58864;45.928;20.078;2024-03-07T00:31:08;13.50;;;6.07;;
71166;SDS011;58864;45.928;20.078;2024-03-07T00:33:35;12.15;;;5.88;;
71166;SDS011;58864;45.928;20.078;2024-03-07T00:36:01;15.40;;;6.43;;
71166;SDS011;58864;45.928;20.078;2024-03-07T00:38:27;14.35;;;6.38;;
71166;SDS011;58864;45.928;20.078;2024-03-07T00:40:53;16.35;;;6.53;;
71166;SDS011;58864;45.928;20.078;2024-03-07T00:43:20;12.57;;;6.00;;
71166;SDS011;58864;45.928;20.078;2024-03-07T00:45:46;12.93;;;5.65;;
71166;SDS011;58864;45.928;20.078;2024-03-07T00:48:14;13.75;;;5.95;;
71166;SDS011;58864;45.928;20.078;2024-03-07T00:50:40;13.23;;;5.72;;
71166;SDS011;58864;45.928;20.078;2024-03-07T00:53:06;14.68;;;6.55;;
71166;SDS011;58864;45.928;20.078;2024-03-07T00:55:32;11.70;;;5.40;;
71166;SDS011;58864;45.928;20.078;2024-03-07T00:57:58;14.25;;;6.30;;
71166;SDS011;58864;45.928;20.078;2024-03-07T01:00:26;12.05;;;5.88;;
71166;SDS011;58864;45.928;20.078;2024-03-07T01:02:52;12.05;;;5.40;;
71166;SDS011;58864;45.928;20.078;2024-03-07T01:05:19;11.95;;;4.97;;
71166;SDS011;58864;45.928;20.078;2024-03-07T01:07:45;12.53;;;5.33;;
71166;SDS011;58864;45.928;20.078;2024-03-07T01:10:12;13.15;;;4.95;;
71166;SDS011;58864;45.928;20.078;2024-03-07T01:12:38;10.48;;;4.32;;
71166;SDS011;58864;45.928;20.078;2024-03-07T01:15:04;11.65;;;5.28;;
71166;SDS011;58864;45.928;20.078;2024-03-07T01:17:32;12.40;;;4.90;;
71166;SDS011;58864;45.928;20.078;2024-03-07T01:19:58;13.10;;;5.43;;
71166;SDS011;58864;45.928;20.078;2024-03-07T01:22:24;11.43;;;4.78;;
71166;SDS011;58864;45.928;20.078;2024-03-07T01:24:50;10.75;;;4.63;;
71166;SDS011;58864;45.928;20.078;2024-03-07T01:27:16;13.13;;;5.10;;
71166;SDS011;58864;45.928;20.078;2024-03-07T01:29:42;11.88;;;4.88;;
71166;SDS011;58864;45.928;20.078;2024-03-07T01:32:08;11.03;;;5.27;;
71166;SDS011;58864;45.928;20.078;2024-03-07T01:34:36;13.88;;;5.13;;
71166;SDS011;58864;45.928;20.078;2024-03-07T01:37:02;12.85;;;5.47;;
71166;SDS011;58864;45.928;20.078;2024-03-07T01:39:28;13.32;;;5.35;;
71166;SDS011;58864;45.928;20.078;2024-03-07T01:41:53;10.32;;;4.97;;
71166;SDS011;58864;45.928;20.078;2024-03-07T01:44:19;12.80;;;4.87;;
71166;SDS011;58864;45.928;20.078;2024-03-07T01:46:45;13.00;;;5.55;;
71166;SDS011;58864;45.928;20.078;2024-03-07T01:49:11;12.55;;;5.55;;
71166;SDS011;58864;45.928;20.078;2024-03-07T01:51:39;12.48;;;5.57;;
71166;SDS011;58864;45.928;20.078;2024-03-07T01:54:05;13.93;;;5.68;;
71166;SDS011;58864;45.928;20.078;2024-03-07T01:56:33;11.33;;;4.90;;
71166;SDS011;58864;45.928;20.078;2024-03-07T01:58:58;12.15;;;5.10;;
71166;SDS011;58864;45.928;20.078;2024-03-07T02:01:26;13.07;;;5.60;;
71166;SDS011;58864;45.928;20.078;2024-03-07T02:03:52;11.60;;;5.22;;
71166;SDS011;58864;45.928;20.078;2024-03-07T02:06:18;13.48;;;5.45;;
71166;SDS011;58864;45.928;20.078;2024-03-07T02:08:45;11.00;;;4.77;;
71166;SDS011;58864;45.928;20.078;2024-03-07T02:11:12;11.18;;;5.22;;
71166;SDS011;58864;45.928;20.078;2024-03-07T02:13:37;10.23;;;4.90;;
71166;SDS011;58864;45.928;20.078;2024-03-07T02:16:03;12.73;;;5.35;;
71166;SDS011;58864;45.928;20.078;2024-03-07T02:18:31;12.55;;;5.30;;
71166;SDS011;58864;45.928;20.078;2024-03-07T02:20:59;12.40;;;4.70;;
71166;SDS011;58864;45.928;20.078;2024-03-07T02:23:25;12.32;;;5.05;;
71166;SDS011;58864;45.928;20.078;2024-03-07T02:25:51;13.40;;;5.03;;
71166;SDS011;58864;45.928;20.078;2024-03-07T02:28:17;11.50;;;5.07;;
71166;SDS011;58864;45.928;20.078;2024-03-07T02:30:43;12.52;;;5.22;;
71166;SDS011;58864;45.928;20.078;2024-03-07T02:33:10;11.97;;;5.50;;
71166;SDS011;58864;45.928;20.078;2024-03-07T02:35:36;12.95;;;5.55;;
71166;SDS011;58864;45.928;20.078;2024-03-07T02:38:04;10.98;;;4.82;;
71166;SDS011;58864;45.928;20.078;2024-03-07T02:40:29;12.95;;;5.60;;
71166;SDS011;58864;45.928;20.078;2024-03-07T02:42:55;12.35;;;5.88;;
71166;SDS011;58864;45.928;20.078;2024-03-07T02:45:21;10.70;;;5.27;;
71166;SDS011;58864;45.928;20.078;2024-03-07T02:47:47;14.77;;;5.65;;
71166;SDS011;58864;45.928;20.078;2024-03-07T02:50:13;13.43;;;5.88;;
71166;SDS011;58864;45.928;20.078;2024-03-07T02:52:39;13.48;;;5.70;;
71166;SDS011;58864;45.928;20.078;2024-03-07T02:55:07;14.07;;;6.13;;
71166;SDS011;58864;45.928;20.078;2024-03-07T02:57:34;12.90;;;5.40;;
71166;SDS011;58864;45.928;20.078;2024-03-07T03:00:00;13.90;;;5.88;;
71166;SDS011;58864;45.928;20.078;2024-03-07T03:02:27;13.88;;;6.15;;
71166;SDS011;58864;45.928;20.078;2024-03-07T03:04:53;15.57;;;6.30;;
71166;SDS011;58864;45.928;20.078;2024-03-07T03:07:19;13.48;;;6.10;;
71166;SDS011;58864;45.928;20.078;2024-03-07T03:09:45;15.13;;;6.97;;
71166;SDS011;58864;45.928;20.078;2024-03-07T03:12:13;15.63;;;6.53;;
71166;SDS011;58864;45.928;20.078;2024-03-07T03:14:39;15.70;;;6.78;;
71166;SDS011;58864;45.928;20.078;2024-03-07T03:17:06;15.90;;;7.20;;
71166;SDS011;58864;45.928;20.078;2024-03-07T03:19:33;15.60;;;7.20;;
71166;SDS011;58864;45.928;20.078;2024-03-07T03:21:59;14.57;;;6.70;;
71166;SDS011;58864;45.928;20.078;2024-03-07T03:24:25;16.48;;;7.55;;
71166;SDS011;58864;45.928;20.078;2024-03-07T03:26:51;17.10;;;8.23;;
71166;SDS011;58864;45.928;20.078;2024-03-07T03:29:18;16.95;;;7.97;;
71166;SDS011;58864;45.928;20.078;2024-03-07T03:31:44;17.73;;;7.50;;
71166;SDS011;58864;45.928;20.078;2024-03-07T03:34:10;17.40;;;7.83;;
71166;SDS011;58864;45.928;20.078;2024-03-07T03:36:36;19.75;;;8.45;;
71166;SDS011;58864;45.928;20.078;2024-03-07T03:39:02;17.88;;;7.80;;
71166;SDS011;58864;45.928;20.078;2024-03-07T03:41:31;19.27;;;8.20;;
71166;SDS011;58864;45.928;20.078;2024-03-07T03:43:57;18.83;;;8.02;;
71166;SDS011;58864;45.928;20.078;2024-03-07T03:46:24;17.13;;;8.00;;
71166;SDS011;58864;45.928;20.078;2024-03-07T03:48:50;16.40;;;7.85;;
71166;SDS011;58864;45.928;20.078;2024-03-07T03:51:16;16.58;;;7.82;;
71166;SDS011;58864;45.928;20.078;2024-03-07T03:53:42;18.90;;;8.48;;
71166;SDS011;58864;45.928;20.078;2024-03-07T03:56:10;18.92;;;8.05;;
71166;SDS011;58864;45.928;20.078;2024-03-07T03:58:37;20.13;;;9.23;;
71166;SDS011;58864;45.928;20.078;2024-03-07T04:01:03;19.73;;;8.88;;
71166;SDS011;58864;45.928;20.078;2024-03-07T04:03:33;20.30;;;8.60;;
71166;SDS011;58864;45.928;20.078;2024-03-07T04:05:59;17.52;;;8.27;;
71166;SDS011;58864;45.928;20.078;2024-03-07T04:08:25;21.60;;;8.85;;
71166;SDS011;58864;45.928;20.078;2024-03-07T04:10:51;21.63;;;8.73;;
71166;SDS011;58864;45.928;20.078;2024-03-07T04:13:16;19.02;;;8.70;;
71166;SDS011;58864;45.928;20.078;2024-03-07T04:15:42;20.08;;;9.23;;
71166;SDS011;58864;45.928;20.078;2024-03-07T04:18:08;21.50;;;9.35;;
71166;SDS011;58864;45.928;20.078;2024-03-07T04:20:36;21.40;;;10.00;;
71166;SDS011;58864;45.928;20.078;2024-03-07T04:23:03;21.90;;;9.07;;
71166;SDS011;58864;45.928;20.078;2024-03-07T04:25:29;22.85;;;9.30;;
71166;SDS011;58864;45.928;20.078;2024-03-07T04:27:57;22.20;;;8.68;;
71166;SDS011;58864;45.928;20.078;2024-03-07T04:30:23;21.23;;;9.00;;
71166;SDS011;58864;45.928;20.078;2024-03-07T04:32:49;19.45;;;8.88;;
71166;SDS011;58864;45.928;20.078;2024-03-07T04:35:16;20.47;;;8.97;;
71166;SDS011;58864;45.928;20.078;2024-03-07T04:37:43;19.60;;;8.65;;
71166;SDS011;58864;45.928;20.078;2024-03-07T04:40:09;18.77;;;8.90;;
71166;SDS011;58864;45.928;20.078;2024-03-07T04:42:40;20.05;;;9.43;;
71166;SDS011;58864;45.928;20.078;2024-03-07T04:45:07;21.10;;;9.23;;
71166;SDS011;58864;45.928;20.078;2024-03-07T04:47:37;22.83;;;9.30;;
71166;SDS011;58864;45.928;20.078;2024-03-07T04:50:03;24.30;;;9.27;;
71166;SDS011;58864;45.928;20.078;2024-03-07T04:52:30;23.60;;;9.57;;
71166;SDS011;58864;45.928;20.078;2024-03-07T04:54:57;26.45;;;9.15;;
71166;SDS011;58864;45.928;20.078;2024-03-07T04:57:23;20.80;;;9.23;;
71166;SDS011;58864;45.928;20.078;2024-03-07T04:59:49;20.53;;;9.43;;
71166;SDS011;58864;45.928;20.078;2024-03-07T05:02:15;22.55;;;9.60;;
71166;SDS011;58864;45.928;20.078;2024-03-07T05:04:41;20.73;;;9.07;;
71166;SDS011;58864;45.928;20.078;2024-03-07T05:07:07;18.55;;;8.45;;
71166;SDS011;58864;45.928;20.078;2024-03-07T05:09:33;23.38;;;10.05;;
71166;SDS011;58864;45.928;20.078;2024-03-07T05:12:01;24.40;;;10.93;;
71166;SDS011;58864;45.928;20.078;2024-03-07T05:14:27;22.55;;;9.45;;
71166;SDS011;58864;45.928;20.078;2024-03-07T05:16:53;21.98;;;9.77;;
71166;SDS011;58864;45.928;20.078;2024-03-07T05:19:34;21.95;;;9.45;;
71166;SDS011;58864;45.928;20.078;2024-03-07T05:22:00;21.08;;;9.38;;
71166;SDS011;58864;45.928;20.078;2024-03-07T05:24:26;26.60;;;10.27;;
71166;SDS011;58864;45.928;20.078;2024-03-07T05:26:51;22.83;;;10.15;;
71166;SDS011;58864;45.928;20.078;2024-03-07T05:29:19;21.05;;;9.45;;
71166;SDS011;58864;45.928;20.078;2024-03-07T05:31:46;24.02;;;10.65;;
71166;SDS011;58864;45.928;20.078;2024-03-07T05:34:12;25.70;;;10.63;;
71166;SDS011;58864;45.928;20.078;2024-03-07T05:36:38;23.27;;;10.65;;
71166;SDS011;58864;45.928;20.078;2024-03-07T05:39:08;22.85;;;10.30;;
71166;SDS011;58864;45.928;20.078;2024-03-07T05:42:31;21.17;;;9.68;;
71166;SDS011;58864;45.928;20.078;2024-03-07T05:48:37;21.60;;;9.00;;
71166;SDS011;58864;45.928;20.078;2024-03-07T05:51:05;20.67;;;9.05;;
71166;SDS011;58864;45.928;20.078;2024-03-07T05:53:36;21.90;;;9.57;;
71166;SDS011;58864;45.928;20.078;2024-03-07T05:56:02;24.13;;;9.63;;
71166;SDS011;58864;45.928;20.078;2024-03-07T05:58:34;23.63;;;9.63;;
71166;SDS011;58864;45.928;20.078;2024-03-07T06:01:09;22.87;;;10.13;;
71166;SDS011;58864;45.928;20.078;2024-03-07T06:04:06;22.23;;;9.73;;
71166;SDS011;58864;45.928;20.078;2024-03-07T06:07:06;23.50;;;10.63;;
71166;SDS011;58864;45.928;20.078;2024-03-07T06:09:33;24.52;;;10.38;;
71166;SDS011;58864;45.928;20.078;2024-03-07T06:11:59;23.75;;;9.85;;
71166;SDS011;58864;45.928;20.078;2024-03-07T06:14:26;25.77;;;11.23;;
71166;SDS011;58864;45.928;20.078;2024-03-07T06:16:53;24.58;;;10.63;;
71166;SDS011;58864;45.928;20.078;2024-03-07T06:19:24;25.92;;;11.02;;
71166;SDS011;58864;45.928;20.078;2024-03-07T06:21:50;24.55;;;10.50;;
71166;SDS011;58864;45.928;20.078;2024-03-07T06:24:18;25.25;;;10.88;;
71166;SDS011;58864;45.928;20.078;2024-03-07T06:26:46;25.67;;;10.43;;
71166;SDS011;58864;45.928;20.078;2024-03-07T06:35:07;23.90;;;9.68;;
71166;SDS011;58864;45.928;20.078;2024-03-07T06:47:36;27.15;;;11.43;;
71166;SDS011;58864;45.928;20.078;2024-03-07T06:53:33;25.00;;;10.95;;
71166;SDS011;58864;45.928;20.078;2024-03-07T06:55:59;23.03;;;10.27;;
71166;SDS011;58864;45.928;20.078;2024-03-07T06:58:26;25.00;;;11.07;;
71166;SDS011;58864;45.928;20.078;2024-03-07T07:00:52;25.17;;;11.70;;
71166;SDS011;58864;45.928;20.078;2024-03-07T07:03:20;25.48;;;11.25;;
71166;SDS011;58864;45.928;20.078;2024-03-07T07:05:57;27.50;;;12.13;;
71166;SDS011;58864;45.928;20.078;2024-03-07T07:08:24;26.00;;;11.93;;
71166;SDS011;58864;45.928;20.078;2024-03-07T07:10:52;28.98;;;12.10;;
71166;SDS011;58864;45.928;20.078;2024-03-07T07:13:20;28.02;;;11.82;;
71166;SDS011;58864;45.928;20.078;2024-03-07T07:15:46;27.02;;;11.98;;
71166;SDS011;58864;45.928;20.078;2024-03-07T07:18:12;28.58;;;12.63;;
71166;SDS011;58864;45.928;20.078;2024-03-07T07:20:38;29.03;;;11.93;;
71166;SDS011;58864;45.928;20.078;2024-03-07T07:23:06;28.13;;;11.50;;
71166;SDS011;58864;45.928;20.078;2024-03-07T07:36:12;25.63;;;11.20;;
71166;SDS011;58864;45.928;20.078;2024-03-07T07:52:47;25.60;;;10.83;;
71166;SDS011;58864;45.928;20.078;2024-03-07T07:55:22;25.85;;;11.27;;
71166;SDS011;58864;45.928;20.078;2024-03-07T07:57:57;25.38;;;10.88;;
71166;SDS011;58864;45.928;20.078;2024-03-07T08:20:31;26.00;;;11.95;;
71166;SDS011;58864;45.928;20.078;2024-03-07T08:40:03;25.13;;;11.97;;
71166;SDS011;58864;45.928;20.078;2024-03-07T08:42:46;24.00;;;11.82;;
71166;SDS011;58864;45.928;20.078;2024-03-07T09:10:28;40.03;;;18.17;;
71166;SDS011;58864;45.928;20.078;2024-03-07T09:12:54;35.38;;;16.92;;
71166;SDS011;58864;45.928;20.078;2024-03-07T09:15:21;34.35;;;16.77;;
71166;SDS011;58864;45.928;20.078;2024-03-07T09:17:47;25.35;;;14.15;;
71166;SDS011;58864;45.928;20.078;2024-03-07T09:20:13;25.33;;;12.80;;
71166;SDS011;58864;45.928;20.078;2024-03-07T09:22:39;22.87;;;11.00;;
71166;SDS011;58864;45.928;20.078;2024-03-07T09:25:06;19.92;;;10.27;;
71166;SDS011;58864;45.928;20.078;2024-03-07T09:27:33;16.92;;;8.70;;
71166;SDS011;58864;45.928;20.078;2024-03-07T09:29:59;16.45;;;8.73;;
71166;SDS011;58864;45.928;20.078;2024-03-07T09:32:25;18.42;;;8.13;;
71166;SDS011;58864;45.928;20.078;2024-03-07T09:34:52;12.03;;;5.90;;
71166;SDS011;58864;45.928;20.078;2024-03-07T09:37:18;13.75;;;6.45;;
71166;SDS011;58864;45.928;20.078;2024-03-07T09:39:45;18.20;;;9.20;;
71166;SDS011;58864;45.928;20.078;2024-03-07T09:42:11;17.58;;;8.70;;
71166;SDS011;58864;45.928;20.078;2024-03-07T09:44:39;14.75;;;7.45;;
71166;SDS011;58864;45.928;20.078;2024-03-07T09:47:06;15.60;;;6.40;;
71166;SDS011;58864;45.928;20.078;2024-03-07T09:49:32;13.88;;;6.90;;
71166;SDS011;58864;45.928;20.078;2024-03-07T09:51:59;13.55;;;7.35;;
71166;SDS011;58864;45.928;20.078;2024-03-07T09:54:26;12.60;;;5.50;;
71166;SDS011;58864;45.928;20.078;2024-03-07T09:56:52;11.15;;;5.28;;
71166;SDS011;58864;45.928;20.078;2024-03-07T09:59:19;12.20;;;5.97;;
71166;SDS011;58864;45.928;20.078;2024-03-07T10:01:47;12.30;;;5.55;;
71166;SDS011;58864;45.928;20.078;2024-03-07T10:04:15;14.25;;;6.32;;
71166;SDS011;58864;45.928;20.078;2024-03-07T10:06:42;12.23;;;5.85;;
71166;SDS011;58864;45.928;20.078;2024-03-07T10:09:09;13.45;;;6.55;;
71166;SDS011;58864;45.928;20.078;2024-03-07T10:11:37;13.50;;;6.17;;
71166;SDS011;58864;45.928;20.078;2024-03-07T10:14:03;12.85;;;6.40;;
71166;SDS011;58864;45.928;20.078;2024-03-07T10:16:29;19.90;;;9.07;;
71166;SDS011;58864;45.928;20.078;2024-03-07T10:18:58;8.68;;;3.95;;
71166;SDS011;58864;45.928;20.078;2024-03-07T10:21:25;11.45;;;6.20;;
71166;SDS011;58864;45.928;20.078;2024-03-07T10:23:50;14.37;;;6.80;;
71166;SDS011;58864;45.928;20.078;2024-03-07T10:26:31;15.32;;;7.70;;
71166;SDS011;58864;45.928;20.078;2024-03-07T10:28:58;17.70;;;8.82;;
71166;SDS011;58864;45.928;20.078;2024-03-07T10:31:27;14.88;;;6.78;;
71166;SDS011;58864;45.928;20.078;2024-03-07T10:33:58;17.67;;;7.35;;
71166;SDS011;58864;45.928;20.078;2024-03-07T10:36:26;15.07;;;7.27;;
71166;SDS011;58864;45.928;20.078;2024-03-07T10:38:52;14.90;;;6.70;;
71166;SDS011;58864;45.928;20.078;2024-03-07T10:41:19;17.50;;;8.45;;
71166;SDS011;58864;45.928;20.078;2024-03-07T10:43:46;22.60;;;10.13;;
71166;SDS011;58864;45.928;20.078;2024-03-07T10:46:14;22.02;;;9.43;;
71166;SDS011;58864;45.928;20.078;2024-03-07T10:48:41;20.10;;;8.53;;
71166;SDS011;58864;45.928;20.078;2024-03-07T10:51:13;13.98;;;7.03;;
71166;SDS011;58864;45.928;20.078;2024-03-07T10:53:46;11.73;;;6.28;;
71166;SDS011;58864;45.928;20.078;2024-03-07T10:56:24;13.32;;;5.70;;
71166;SDS011;58864;45.928;20.078;2024-03-07T10:58:58;16.35;;;7.40;;
71166;SDS011;58864;45.928;20.078;2024-03-07T11:01:26;20.23;;;8.23;;
71166;SDS011;58864;45.928;20.078;2024-03-07T11:03:57;24.27;;;10.25;;
71166;SDS011;58864;45.928;20.078;2024-03-07T11:06:25;20.35;;;9.93;;
71166;SDS011;58864;45.928;20.078;2024-03-07T11:08:51;19.27;;;9.10;;
71166;SDS011;58864;45.928;20.078;2024-03-07T11:11:17;16.73;;;8.15;;
71166;SDS011;58864;45.928;20.078;2024-03-07T11:13:43;27.90;;;11.67;;
71166;SDS011;58864;45.928;20.078;2024-03-07T11:16:09;18.55;;;8.63;;
71166;SDS011;58864;45.928;20.078;2024-03-07T11:18:38;21.33;;;7.15;;
71166;SDS011;58864;45.928;20.078;2024-03-07T11:21:05;13.00;;;6.13;;
71166;SDS011;58864;45.928;20.078;2024-03-07T11:23:33;14.82;;;6.80;;
71166;SDS011;58864;45.928;20.078;2024-03-07T11:26:02;16.53;;;7.20;;
71166;SDS011;58864;45.928;20.078;2024-03-07T11:28:31;14.38;;;7.15;;
71166;SDS011;58864;45.928;20.078;2024-03-07T11:31:07;15.32;;;7.35;;
71166;SDS011;58864;45.928;20.078;2024-03-07T11:33:36;13.38;;;5.75;;
71166;SDS011;58864;45.928;20.078;2024-03-07T11:36:04;12.18;;;6.43;;
71166;SDS011;58864;45.928;20.078;2024-03-07T11:38:30;14.07;;;6.83;;
71166;SDS011;58864;45.928;20.078;2024-03-07T11:41:00;19.05;;;9.60;;
71166;SDS011;58864;45.928;20.078;2024-03-07T11:43:28;21.42;;;10.80;;
71166;SDS011;58864;45.928;20.078;2024-03-07T11:45:55;24.20;;;12.52;;
71166;SDS011;58864;45.928;20.078;2024-03-07T11:48:22;19.98;;;9.85;;
71166;SDS011;58864;45.928;20.078;2024-03-07T11:50:48;18.90;;;8.83;;
71166;SDS011;58864;45.928;20.078;2024-03-07T11:53:15;20.08;;;9.88;;
71166;SDS011;58864;45.928;20.078;2024-03-07T11:55:41;19.42;;;8.40;;
71166;SDS011;58864;45.928;20.078;2024-03-07T11:58:11;16.58;;;8.35;;
71166;SDS011;58864;45.928;20.078;2024-03-07T12:00:38;15.82;;;8.52;;
71166;SDS011;58864;45.928;20.078;2024-03-07T12:03:07;18.50;;;9.27;;
71166;SDS011;58864;45.928;20.078;2024-03-07T12:05:37;14.65;;;7.18;;
71166;SDS011;58864;45.928;20.078;2024-03-07T12:08:03;14.40;;;6.90;;
71166;SDS011;58864;45.928;20.078;2024-03-07T12:10:29;20.23;;;9.23;;
71166;SDS011;58864;45.928;20.078;2024-03-07T12:12:56;14.70;;;6.38;;
71166;SDS011;58864;45.928;20.078;2024-03-07T12:15:23;18.23;;;7.23;;
71166;SDS011;58864;45.928;20.078;2024-03-07T12:17:49;10.82;;;5.20;;
71166;SDS011;58864;45.928;20.078;2024-03-07T12:20:15;10.85;;;4.97;;
71166;SDS011;58864;45.928;20.078;2024-03-07T12:22:51;13.52;;;5.43;;
71166;SDS011;58864;45.928;20.078;2024-03-07T12:25:18;10.95;;;5.10;;
71166;SDS011;58864;45.928;20.078;2024-03-07T12:27:45;12.33;;;5.20;;
71166;SDS011;58864;45.928;20.078;2024-03-07T12:30:14;13.23;;;5.60;;
71166;SDS011;58864;45.928;20.078;2024-03-07T12:32:48;14.32;;;6.22;;
71166;SDS011;58864;45.928;20.078;2024-03-07T12:35:14;11.93;;;5.22;;
71166;SDS011;58864;45.928;20.078;2024-03-07T12:37:40;12.07;;;5.50;;
71166;SDS011;58864;45.928;20.078;2024-03-07T12:40:11;13.50;;;5.10;;
71166;SDS011;58864;45.928;20.078;2024-03-07T12:42:41;12.57;;;5.10;;
71166;SDS011;58864;45.928;20.078;2024-03-07T12:45:07;10.52;;;4.55;;
71166;SDS011;58864;45.928;20.078;2024-03-07T12:47:41;11.20;;;4.80;;
71166;SDS011;58864;45.928;20.078;2024-03-07T12:50:09;12.65;;;5.03;;
71166;SDS011;58864;45.928;20.078;2024-03-07T12:52:35;12.27;;;5.40;;
71166;SDS011;58864;45.928;20.078;2024-03-07T12:55:03;12.27;;;4.57;;
71166;SDS011;58864;45.928;20.078;2024-03-07T12:57:30;14.40;;;5.20;;
71166;SDS011;58864;45.928;20.078;2024-03-07T12:59:56;15.38;;;6.68;;
71166;SDS011;58864;45.928;20.078;2024-03-07T13:02:22;11.18;;;4.93;;
71166;SDS011;58864;45.928;20.078;2024-03-07T13:04:51;17.10;;;6.30;;
71166;SDS011;58864;45.928;20.078;2024-03-07T13:07:18;17.25;;;6.65;;
71166;SDS011;58864;45.928;20.078;2024-03-07T13:09:44;16.77;;;6.70;;
71166;SDS011;58864;45.928;20.078;2024-03-07T13:12:12;13.07;;;5.38;;
71166;SDS011;58864;45.928;20.078;2024-03-07T13:14:39;13.63;;;5.05;;
71166;SDS011;58864;45.928;20.078;2024-03-07T13:17:07;10.83;;;4.20;;
71166;SDS011;58864;45.928;20.078;2024-03-07T13:19:33;12.43;;;4.65;;
71166;SDS011;58864;45.928;20.078;2024-03-07T13:22:02;11.10;;;4.72;;
71166;SDS011;58864;45.928;20.078;2024-03-07T13:24:31;11.75;;;5.13;;
71166;SDS011;58864;45.928;20.078;2024-03-07T13:26:59;9.65;;;4.43;;
71166;SDS011;58864;45.928;20.078;2024-03-07T13:29:25;9.93;;;4.13;;
71166;SDS011;58864;45.928;20.078;2024-03-07T13:31:52;11.70;;;5.90;;
71166;SDS011;58864;45.928;20.078;2024-03-07T13:34:20;13.48;;;6.30;;
71166;SDS011;58864;45.928;20.078;2024-03-07T13:36:46;16.02;;;7.10;;
71166;SDS011;58864;45.928;20.078;2024-03-07T13:39:12;13.80;;;6.43;;
71166;SDS011;58864;45.928;20.078;2024-03-07T13:41:39;15.67;;;7.30;;
71166;SDS011;58864;45.928;20.078;2024-03-07T13:44:05;28.30;;;11.60;;
71166;SDS011;58864;45.928;20.078;2024-03-07T13:46:31;39.88;;;15.95;;
71166;SDS011;58864;45.928;20.078;2024-03-07T13:48:57;19.50;;;8.00;;
71166;SDS011;58864;45.928;20.078;2024-03-07T13:51:31;17.17;;;7.32;;
71166;SDS011;58864;45.928;20.078;2024-03-07T13:53:59;20.70;;;8.00;;
71166;SDS011;58864;45.928;20.078;2024-03-07T13:56:36;25.77;;;9.10;;
71166;SDS011;58864;45.928;20.078;2024-03-07T13:59:15;41.45;;;13.63;;
71166;SDS011;58864;45.928;20.078;2024-03-07T14:02:02;21.48;;;7.30;;
71166;SDS011;58864;45.928;20.078;2024-03-07T14:07:41;15.13;;;5.80;;
71166;SDS011;58864;45.928;20.078;2024-03-07T14:13:30;14.18;;;6.22;;
71166;SDS011;58864;45.928;20.078;2024-03-07T14:19:29;14.52;;;6.13;;
71166;SDS011;58864;45.928;20.078;2024-03-07T14:22:21;12.30;;;5.37;;
71166;SDS011;58864;45.928;20.078;2024-03-07T14:25:03;10.70;;;5.15;;
71166;SDS011;58864;45.928;20.078;2024-03-07T14:27:49;12.25;;;5.70;;
71166;SDS011;58864;45.928;20.078;2024-03-07T14:30:19;20.30;;;8.95;;
71166;SDS011;58864;45.928;20.078;2024-03-07T14:32:50;26.38;;;8.90;;
71166;SDS011;58864;45.928;20.078;2024-03-07T14:35:22;20.53;;;7.27;;
71166;SDS011;58864;45.928;20.078;2024-03-07T14:37:50;18.70;;;6.95;;
71166;SDS011;58864;45.928;20.078;2024-03-07T14:40:18;18.80;;;6.65;;
71166;SDS011;58864;45.928;20.078;2024-03-07T14:42:49;11.82;;;5.20;;
71166;SDS011;58864;45.928;20.078;2024-03-07T14:45:15;12.68;;;5.65;;
71166;SDS011;58864;45.928;20.078;2024-03-07T14:47:45;10.67;;;5.53;;
71166;SDS011;58864;45.928;20.078;2024-03-07T14:50:12;13.48;;;6.22;;
71166;SDS011;58864;45.928;20.078;2024-03-07T14:52:40;13.68;;;7.05;;
71166;SDS011;58864;45.928;20.078;2024-03-07T14:55:07;17.98;;;9.02;;
71166;SDS011;58864;45.928;20.078;2024-03-07T14:57:37;28.00;;;12.70;;
71166;SDS011;58864;45.928;20.078;2024-03-07T15:00:03;28.17;;;11.60;;
71166;SDS011;58864;45.928;20.078;2024-03-07T15:02:43;20.48;;;9.98;;
71166;SDS011;58864;45.928;20.078;2024-03-07T15:05:08;21.02;;;10.20;;
71166;SDS011;58864;45.928;20.078;2024-03-07T15:07:35;16.73;;;8.65;;
71166;SDS011;58864;45.928;20.078;2024-03-07T15:10:01;16.55;;;8.18;;
71166;SDS011;58864;45.928;20.078;2024-03-07T15:12:30;14.87;;;7.77;;
71166;SDS011;58864;45.928;20.078;2024-03-07T15:14:56;14.85;;;7.90;;
71166;SDS011;58864;45.928;20.078;2024-03-07T15:17:22;15.05;;;7.82;;
71166;SDS011;58864;45.928;20.078;2024-03-07T15:19:50;20.90;;;9.07;;
71166;SDS011;58864;45.928;20.078;2024-03-07T15:22:16;19.00;;;8.65;;
71166;SDS011;58864;45.928;20.078;2024-03-07T15:24:44;19.03;;;8.47;;
71166;SDS011;58864;45.928;20.078;2024-03-07T15:27:10;18.02;;;8.15;;
71166;SDS011;58864;45.928;20.078;2024-03-07T15:29:36;17.00;;;7.72;;
71166;SDS011;58864;45.928;20.078;2024-03-07T15:32:04;16.00;;;7.50;;
71166;SDS011;58864;45.928;20.078;2024-03-07T15:34:30;14.95;;;7.95;;
71166;SDS011;58864;45.928;20.078;2024-03-07T15:37:02;19.23;;;8.73;;
71166;SDS011;58864;45.928;20.078;2024-03-07T15:39:28;22.85;;;9.98;;
71166;SDS011;58864;45.928;20.078;2024-03-07T15:41:54;17.40;;;8.18;;
71166;SDS011;58864;45.928;20.078;2024-03-07T15:44:20;18.23;;;8.55;;
71166;SDS011;58864;45.928;20.078;2024-03-07T15:46:46;18.05;;;8.77;;
71166;SDS011;58864;45.928;20.078;2024-03-07T15:49:12;15.57;;;7.33;;
71166;SDS011;58864;45.928;20.078;2024-03-07T15:51:38;17.42;;;8.43;;
71166;SDS011;58864;45.928;20.078;2024-03-07T15:54:07;17.65;;;8.75;;
71166;SDS011;58864;45.928;20.078;2024-03-07T15:56:35;17.92;;;9.30;;
71166;SDS011;58864;45.928;20.078;2024-03-07T15:59:01;16.02;;;8.73;;
71166;SDS011;58864;45.928;20.078;2024-03-07T16:01:27;15.97;;;8.03;;
71166;SDS011;58864;45.928;20.078;2024-03-07T16:03:53;16.23;;;8.15;;
71166;SDS011;58864;45.928;20.078;2024-03-07T16:06:19;17.50;;;8.60;;
71166;SDS011;58864;45.928;20.078;2024-03-07T16:08:45;17.02;;;8.88;;
71166;SDS011;58864;45.928;20.078;2024-03-07T16:11:13;14.90;;;7.90;;
71166;SDS011;58864;45.928;20.078;2024-03-07T16:13:38;16.10;;;7.73;;
71166;SDS011;58864;45.928;20.078;2024-03-07T16:16:05;16.15;;;7.78;;
71166;SDS011;58864;45.928;20.078;2024-03-07T16:18:31;18.58;;;8.98;;
71166;SDS011;58864;45.928;20.078;2024-03-07T16:20:57;21.70;;;10.82;;
71166;SDS011;58864;45.928;20.078;2024-03-07T16:23:23;24.67;;;11.35;;